This is the latest recevied weather packets stored in our database for station/object G7GFU-13. If no packets are shown the sender has not sent any weather packets the latest 10 day(s).
| Time | Temp. | Humidity | Pressure | Rain* | Wind** | Luminosity | Snow |
|---|---|---|---|---|---|---|---|
| 1777075203 | 11.11° C | 55% | 1022.6 hPa | 0 mm | - | - | - |
| 1777073223 | 11.11° C | 52% | 1022.9 hPa | 0 mm | - | - | - |
| 1777070838 | 12.78° C | 47% | 1022.8 hPa | 0 mm | - | - | - |
| 1777068137 | 12.78° C | 47% | 1022.9 hPa | 0 mm | - | - | - |
| 1777064943 | 11.11° C | 55% | 1022.9 hPa | 0 mm | - | - | - |
| 1777064043 | 10.56° C | 57% | 1023 hPa | 0 mm | - | - | - |
| 1777063504 | 11.11° C | 56% | 1023 hPa | 0 mm | - | - | - |
| 1777062963 | 10.56° C | 57% | 1023 hPa | 0 mm | - | - | - |
| 1777056843 | 16.11° C | 40% | 1022.7 hPa | 0 mm | - | - | - |
| 1777056438 | 16.67° C | 40% | 1022.6 hPa | 0 mm | - | - | - |
| 1777055763 | 16.67° C | 39% | 1022.6 hPa | 0 mm | - | - | - |
| 1777053603 | 17.78° C | 36% | 1022.7 hPa | 0 mm | - | - | - |
| 1777053243 | 17.78° C | 35% | 1022.7 hPa | 0 mm | - | - | - |
| 1777051623 | 18.33° C | 33% | 1022.7 hPa | 0 mm | - | - | - |
| 1777051083 | 18.33° C | 33% | 1022.8 hPa | 0 mm | - | - | - |
| 1777050003 | 20° C | 30% | 1022.9 hPa | 0 mm | - | - | - |
| 1777049238 | 20° C | 30% | 1023 hPa | 0 mm | - | - | - |
| 1777048697 | 20° C | 29% | 1023.1 hPa | 0 mm | - | - | - |
| 1777046943 | 18.89° C | 30% | 1023.4 hPa | 0 mm | - | - | - |
| 1777045503 | 18.89° C | 29% | 1023.5 hPa | 0 mm | - | - | - |
| 1777043477 | 19.44° C | 30% | 1023.8 hPa | 0 mm | - | - | - |
| 1777039743 | 18.33° C | 30% | 1024.6 hPa | 0 mm | - | - | - |
| 1777034703 | 17.78° C | 39% | 1025.7 hPa | 0 mm | - | - | - |
| 1777030157 | 16.67° C | 35% | 1026.7 hPa | 0 mm | - | - | - |
| 1777026963 | 15.56° C | 46% | 1027 hPa | 0 mm | - | - | - |
* Rain latest hour (hover to see other rain measurements)
** Current wind speed in m/s (hover to see current wind gust speed)